sensor_id;sensor_type;location;lat;lon;timestamp;P1;durP1;ratioP1;P2;durP2;ratioP2
74945;SDS011;63509;45.250;38.102;2022-10-16T00:01:16;5.80;;;3.45;;
74945;SDS011;63509;45.250;38.102;2022-10-16T00:03:44;7.25;;;3.10;;
74945;SDS011;63509;45.250;38.102;2022-10-16T00:06:11;5.60;;;2.72;;
74945;SDS011;63509;45.250;38.102;2022-10-16T00:08:38;5.07;;;3.15;;
74945;SDS011;63509;45.250;38.102;2022-10-16T00:11:15;6.80;;;3.45;;
74945;SDS011;63509;45.250;38.102;2022-10-16T00:13:45;8.57;;;3.65;;
74945;SDS011;63509;45.250;38.102;2022-10-16T00:16:13;6.32;;;2.90;;
74945;SDS011;63509;45.250;38.102;2022-10-16T00:18:40;4.40;;;3.28;;
74945;SDS011;63509;45.250;38.102;2022-10-16T00:21:07;4.40;;;3.10;;
74945;SDS011;63509;45.250;38.102;2022-10-16T00:23:36;6.90;;;3.22;;
74945;SDS011;63509;45.250;38.102;2022-10-16T00:26:05;5.20;;;3.05;;
74945;SDS011;63509;45.250;38.102;2022-10-16T00:28:34;7.20;;;3.00;;
74945;SDS011;63509;45.250;38.102;2022-10-16T00:31:08;7.35;;;2.78;;
74945;SDS011;63509;45.250;38.102;2022-10-16T00:36:03;4.38;;;2.50;;
74945;SDS011;63509;45.250;38.102;2022-10-16T00:40:57;4.32;;;2.58;;
74945;SDS011;63509;45.250;38.102;2022-10-16T00:46:19;7.05;;;2.80;;
74945;SDS011;63509;45.250;38.102;2022-10-16T00:51:48;4.22;;;2.55;;
74945;SDS011;63509;45.250;38.102;2022-10-16T00:54:19;5.55;;;3.10;;
74945;SDS011;63509;45.250;38.102;2022-10-16T00:56:48;10.93;;;2.70;;
74945;SDS011;63509;45.250;38.102;2022-10-16T00:59:18;7.35;;;2.90;;
74945;SDS011;63509;45.250;38.102;2022-10-16T01:02:02;5.00;;;3.08;;
74945;SDS011;63509;45.250;38.102;2022-10-16T01:04:34;4.70;;;2.88;;
74945;SDS011;63509;45.250;38.102;2022-10-16T01:15:36;6.50;;;3.33;;
74945;SDS011;63509;45.250;38.102;2022-10-16T01:18:22;7.93;;;3.30;;
74945;SDS011;63509;45.250;38.102;2022-10-16T01:31:47;7.72;;;3.03;;
74945;SDS011;63509;45.250;38.102;2022-10-16T01:34:19;6.32;;;3.30;;
74945;SDS011;63509;45.250;38.102;2022-10-16T01:36:55;7.30;;;3.03;;
74945;SDS011;63509;45.250;38.102;2022-10-16T01:39:28;6.00;;;2.83;;
74945;SDS011;63509;45.250;38.102;2022-10-16T01:42:03;5.78;;;3.10;;
74945;SDS011;63509;45.250;38.102;2022-10-16T01:44:34;7.40;;;3.13;;
74945;SDS011;63509;45.250;38.102;2022-10-16T01:47:02;8.98;;;3.20;;
74945;SDS011;63509;45.250;38.102;2022-10-16T01:49:30;6.65;;;3.22;;
74945;SDS011;63509;45.250;38.102;2022-10-16T01:51:59;5.60;;;3.28;;
74945;SDS011;63509;45.250;38.102;2022-10-16T01:54:30;4.85;;;3.03;;
74945;SDS011;63509;45.250;38.102;2022-10-16T01:56:58;7.18;;;3.22;;
74945;SDS011;63509;45.250;38.102;2022-10-16T01:59:25;11.00;;;2.95;;
74945;SDS011;63509;45.250;38.102;2022-10-16T02:01:55;3.97;;;2.92;;
74945;SDS011;63509;45.250;38.102;2022-10-16T02:04:29;5.72;;;3.10;;
74945;SDS011;63509;45.250;38.102;2022-10-16T02:07:00;6.55;;;3.40;;
74945;SDS011;63509;45.250;38.102;2022-10-16T02:09:26;10.10;;;3.97;;
74945;SDS011;63509;45.250;38.102;2022-10-16T02:11:53;9.50;;;3.67;;
74945;SDS011;63509;45.250;38.102;2022-10-16T02:14:21;7.43;;;3.45;;
74945;SDS011;63509;45.250;38.102;2022-10-16T02:16:50;7.82;;;3.25;;
74945;SDS011;63509;45.250;38.102;2022-10-16T02:19:17;6.07;;;3.35;;
74945;SDS011;63509;45.250;38.102;2022-10-16T02:21:53;5.70;;;3.53;;
74945;SDS011;63509;45.250;38.102;2022-10-16T02:25:10;6.53;;;3.20;;
74945;SDS011;63509;45.250;38.102;2022-10-16T02:33:14;7.65;;;3.25;;
74945;SDS011;63509;45.250;38.102;2022-10-16T02:35:41;13.75;;;3.53;;
74945;SDS011;63509;45.250;38.102;2022-10-16T02:38:10;6.10;;;3.38;;
74945;SDS011;63509;45.250;38.102;2022-10-16T02:40:38;9.60;;;3.63;;
74945;SDS011;63509;45.250;38.102;2022-10-16T02:43:04;5.53;;;3.10;;
74945;SDS011;63509;45.250;38.102;2022-10-16T02:45:31;6.47;;;3.58;;
74945;SDS011;63509;45.250;38.102;2022-10-16T02:47:58;5.78;;;3.05;;
74945;SDS011;63509;45.250;38.102;2022-10-16T02:50:24;5.80;;;2.95;;
74945;SDS011;63509;45.250;38.102;2022-10-16T02:52:50;7.25;;;3.50;;
74945;SDS011;63509;45.250;38.102;2022-10-16T02:55:16;5.50;;;3.15;;
74945;SDS011;63509;45.250;38.102;2022-10-16T02:57:43;6.90;;;3.90;;
74945;SDS011;63509;45.250;38.102;2022-10-16T03:00:09;7.72;;;3.78;;
74945;SDS011;63509;45.250;38.102;2022-10-16T03:02:38;5.95;;;3.70;;
74945;SDS011;63509;45.250;38.102;2022-10-16T03:05:04;6.10;;;3.15;;
74945;SDS011;63509;45.250;38.102;2022-10-16T03:07:31;10.05;;;3.25;;
74945;SDS011;63509;45.250;38.102;2022-10-16T03:09:57;5.10;;;3.30;;
74945;SDS011;63509;45.250;38.102;2022-10-16T03:12:26;6.03;;;3.80;;
74945;SDS011;63509;45.250;38.102;2022-10-16T03:14:52;5.63;;;3.55;;
74945;SDS011;63509;45.250;38.102;2022-10-16T03:17:19;5.60;;;3.60;;
74945;SDS011;63509;45.250;38.102;2022-10-16T03:19:45;5.70;;;3.20;;
74945;SDS011;63509;45.250;38.102;2022-10-16T03:22:11;4.60;;;2.80;;
74945;SDS011;63509;45.250;38.102;2022-10-16T03:24:37;5.78;;;2.40;;
74945;SDS011;63509;45.250;38.102;2022-10-16T03:27:03;5.80;;;3.33;;
74945;SDS011;63509;45.250;38.102;2022-10-16T03:29:29;9.90;;;3.45;;
74945;SDS011;63509;45.250;38.102;2022-10-16T03:31:56;8.50;;;3.50;;
74945;SDS011;63509;45.250;38.102;2022-10-16T03:34:22;6.00;;;3.03;;
74945;SDS011;63509;45.250;38.102;2022-10-16T03:36:49;6.32;;;3.38;;
74945;SDS011;63509;45.250;38.102;2022-10-16T03:39:16;7.15;;;3.83;;
74945;SDS011;63509;45.250;38.102;2022-10-16T03:41:42;6.75;;;3.42;;
74945;SDS011;63509;45.250;38.102;2022-10-16T03:44:08;6.97;;;3.35;;
74945;SDS011;63509;45.250;38.102;2022-10-16T03:46:34;7.90;;;3.53;;
74945;SDS011;63509;45.250;38.102;2022-10-16T03:49:00;7.13;;;4.30;;
74945;SDS011;63509;45.250;38.102;2022-10-16T03:51:26;7.07;;;3.90;;
74945;SDS011;63509;45.250;38.102;2022-10-16T03:53:52;8.73;;;5.13;;
74945;SDS011;63509;45.250;38.102;2022-10-16T03:56:18;7.75;;;4.70;;
74945;SDS011;63509;45.250;38.102;2022-10-16T03:58:44;9.43;;;4.70;;
74945;SDS011;63509;45.250;38.102;2022-10-16T04:01:10;6.00;;;4.25;;
74945;SDS011;63509;45.250;38.102;2022-10-16T04:03:37;7.35;;;4.45;;
74945;SDS011;63509;45.250;38.102;2022-10-16T04:06:03;7.97;;;4.85;;
74945;SDS011;63509;45.250;38.102;2022-10-16T04:08:29;9.15;;;4.20;;
74945;SDS011;63509;45.250;38.102;2022-10-16T04:10:55;9.57;;;3.63;;
74945;SDS011;63509;45.250;38.102;2022-10-16T04:13:21;7.25;;;4.15;;
74945;SDS011;63509;45.250;38.102;2022-10-16T04:15:47;6.53;;;3.53;;
74945;SDS011;63509;45.250;38.102;2022-10-16T04:18:13;6.30;;;3.25;;
74945;SDS011;63509;45.250;38.102;2022-10-16T04:20:40;7.15;;;3.08;;
74945;SDS011;63509;45.250;38.102;2022-10-16T04:23:06;8.50;;;4.05;;
74945;SDS011;63509;45.250;38.102;2022-10-16T04:25:32;9.55;;;3.38;;
74945;SDS011;63509;45.250;38.102;2022-10-16T04:27:58;9.07;;;3.92;;
74945;SDS011;63509;45.250;38.102;2022-10-16T04:30:24;4.93;;;2.95;;
74945;SDS011;63509;45.250;38.102;2022-10-16T04:32:51;8.13;;;3.40;;
74945;SDS011;63509;45.250;38.102;2022-10-16T04:35:18;8.63;;;4.20;;
74945;SDS011;63509;45.250;38.102;2022-10-16T04:37:46;7.53;;;3.20;;
74945;SDS011;63509;45.250;38.102;2022-10-16T04:40:12;9.10;;;3.60;;
74945;SDS011;63509;45.250;38.102;2022-10-16T04:42:39;5.25;;;3.13;;
74945;SDS011;63509;45.250;38.102;2022-10-16T04:45:06;8.93;;;3.55;;
74945;SDS011;63509;45.250;38.102;2022-10-16T04:47:33;13.80;;;3.95;;
74945;SDS011;63509;45.250;38.102;2022-10-16T04:49:59;7.47;;;3.70;;
74945;SDS011;63509;45.250;38.102;2022-10-16T04:52:28;7.22;;;3.40;;
74945;SDS011;63509;45.250;38.102;2022-10-16T04:54:54;7.35;;;3.20;;
74945;SDS011;63509;45.250;38.102;2022-10-16T04:57:21;5.80;;;3.38;;
74945;SDS011;63509;45.250;38.102;2022-10-16T04:59:48;8.65;;;3.75;;
74945;SDS011;63509;45.250;38.102;2022-10-16T05:02:14;5.18;;;3.38;;
74945;SDS011;63509;45.250;38.102;2022-10-16T05:04:40;7.40;;;3.75;;
74945;SDS011;63509;45.250;38.102;2022-10-16T05:07:06;6.80;;;4.10;;
74945;SDS011;63509;45.250;38.102;2022-10-16T05:09:32;5.93;;;3.25;;
74945;SDS011;63509;45.250;38.102;2022-10-16T05:11:58;9.00;;;3.95;;
74945;SDS011;63509;45.250;38.102;2022-10-16T05:14:24;7.82;;;4.03;;
74945;SDS011;63509;45.250;38.102;2022-10-16T05:16:50;11.20;;;4.38;;
74945;SDS011;63509;45.250;38.102;2022-10-16T05:19:17;7.88;;;4.28;;
74945;SDS011;63509;45.250;38.102;2022-10-16T05:21:43;6.82;;;3.70;;
74945;SDS011;63509;45.250;38.102;2022-10-16T05:24:09;13.98;;;4.75;;
74945;SDS011;63509;45.250;38.102;2022-10-16T05:26:35;7.50;;;4.07;;
74945;SDS011;63509;45.250;38.102;2022-10-16T05:29:01;6.60;;;4.03;;
74945;SDS011;63509;45.250;38.102;2022-10-16T05:31:28;6.47;;;3.95;;
74945;SDS011;63509;45.250;38.102;2022-10-16T05:33:58;7.45;;;4.13;;
74945;SDS011;63509;45.250;38.102;2022-10-16T05:36:25;7.82;;;3.50;;
74945;SDS011;63509;45.250;38.102;2022-10-16T05:38:51;9.70;;;4.38;;
74945;SDS011;63509;45.250;38.102;2022-10-16T05:41:17;5.22;;;3.20;;
74945;SDS011;63509;45.250;38.102;2022-10-16T05:43:47;6.10;;;3.03;;
74945;SDS011;63509;45.250;38.102;2022-10-16T05:46:14;9.88;;;3.40;;
74945;SDS011;63509;45.250;38.102;2022-10-16T05:48:40;7.70;;;3.72;;
74945;SDS011;63509;45.250;38.102;2022-10-16T05:51:07;6.70;;;3.80;;
74945;SDS011;63509;45.250;38.102;2022-10-16T05:53:36;11.75;;;3.80;;
74945;SDS011;63509;45.250;38.102;2022-10-16T05:56:03;5.45;;;3.53;;
74945;SDS011;63509;45.250;38.102;2022-10-16T05:58:30;6.90;;;3.65;;
74945;SDS011;63509;45.250;38.102;2022-10-16T06:00:59;5.85;;;2.90;;
74945;SDS011;63509;45.250;38.102;2022-10-16T06:03:27;5.95;;;2.90;;
74945;SDS011;63509;45.250;38.102;2022-10-16T06:05:54;8.38;;;3.55;;
74945;SDS011;63509;45.250;38.102;2022-10-16T06:08:21;6.45;;;3.28;;
74945;SDS011;63509;45.250;38.102;2022-10-16T06:10:48;5.05;;;3.25;;
74945;SDS011;63509;45.250;38.102;2022-10-16T06:13:15;7.32;;;3.58;;
74945;SDS011;63509;45.250;38.102;2022-10-16T06:15:41;6.03;;;3.22;;
74945;SDS011;63509;45.250;38.102;2022-10-16T06:18:08;6.65;;;3.25;;
74945;SDS011;63509;45.250;38.102;2022-10-16T06:20:35;6.95;;;3.35;;
74945;SDS011;63509;45.250;38.102;2022-10-16T06:23:02;7.57;;;2.92;;
74945;SDS011;63509;45.250;38.102;2022-10-16T06:25:30;6.43;;;3.92;;
74945;SDS011;63509;45.250;38.102;2022-10-16T06:27:57;6.10;;;3.22;;
74945;SDS011;63509;45.250;38.102;2022-10-16T06:30:23;7.70;;;2.70;;
74945;SDS011;63509;45.250;38.102;2022-10-16T06:32:49;6.45;;;2.75;;
74945;SDS011;63509;45.250;38.102;2022-10-16T06:35:15;4.97;;;2.97;;
74945;SDS011;63509;45.250;38.102;2022-10-16T06:37:41;6.90;;;2.97;;
74945;SDS011;63509;45.250;38.102;2022-10-16T06:40:07;6.55;;;3.13;;
74945;SDS011;63509;45.250;38.102;2022-10-16T06:42:34;5.13;;;2.78;;
74945;SDS011;63509;45.250;38.102;2022-10-16T06:45:00;7.10;;;2.90;;
74945;SDS011;63509;45.250;38.102;2022-10-16T06:47:27;4.93;;;3.20;;
74945;SDS011;63509;45.250;38.102;2022-10-16T06:49:53;6.00;;;2.92;;
74945;SDS011;63509;45.250;38.102;2022-10-16T06:52:19;11.55;;;2.83;;
74945;SDS011;63509;45.250;38.102;2022-10-16T06:54:45;11.23;;;3.45;;
74945;SDS011;63509;45.250;38.102;2022-10-16T06:57:11;7.78;;;2.97;;
74945;SDS011;63509;45.250;38.102;2022-10-16T06:59:37;8.30;;;3.60;;
74945;SDS011;63509;45.250;38.102;2022-10-16T07:02:03;7.50;;;3.10;;
74945;SDS011;63509;45.250;38.102;2022-10-16T07:04:29;10.43;;;3.25;;
74945;SDS011;63509;45.250;38.102;2022-10-16T07:06:55;7.25;;;3.15;;
74945;SDS011;63509;45.250;38.102;2022-10-16T07:09:21;5.28;;;2.72;;
74945;SDS011;63509;45.250;38.102;2022-10-16T07:11:47;4.20;;;2.63;;
74945;SDS011;63509;45.250;38.102;2022-10-16T07:14:18;7.32;;;2.83;;
74945;SDS011;63509;45.250;38.102;2022-10-16T07:16:45;4.55;;;2.47;;
74945;SDS011;63509;45.250;38.102;2022-10-16T07:19:12;10.55;;;2.83;;
74945;SDS011;63509;45.250;38.102;2022-10-16T07:21:40;4.05;;;2.60;;
74945;SDS011;63509;45.250;38.102;2022-10-16T07:24:11;6.43;;;2.80;;
74945;SDS011;63509;45.250;38.102;2022-10-16T07:26:39;10.75;;;2.80;;
74945;SDS011;63509;45.250;38.102;2022-10-16T07:29:19;9.00;;;3.30;;
74945;SDS011;63509;45.250;38.102;2022-10-16T07:31:46;12.68;;;4.35;;
74945;SDS011;63509;45.250;38.102;2022-10-16T07:34:14;4.30;;;2.40;;
74945;SDS011;63509;45.250;38.102;2022-10-16T07:36:41;11.00;;;2.80;;
74945;SDS011;63509;45.250;38.102;2022-10-16T07:39:07;11.75;;;2.55;;
74945;SDS011;63509;45.250;38.102;2022-10-16T07:41:34;6.50;;;3.25;;
74945;SDS011;63509;45.250;38.102;2022-10-16T07:44:02;6.75;;;3.03;;
74945;SDS011;63509;45.250;38.102;2022-10-16T07:46:29;6.60;;;2.83;;
74945;SDS011;63509;45.250;38.102;2022-10-16T07:48:56;6.47;;;3.22;;
74945;SDS011;63509;45.250;38.102;2022-10-16T07:51:23;8.20;;;2.90;;
74945;SDS011;63509;45.250;38.102;2022-10-16T07:53:50;5.45;;;2.95;;
74945;SDS011;63509;45.250;38.102;2022-10-16T07:56:17;11.52;;;3.25;;
74945;SDS011;63509;45.250;38.102;2022-10-16T07:58:43;4.22;;;2.42;;
74945;SDS011;63509;45.250;38.102;2022-10-16T08:01:11;9.10;;;3.03;;
74945;SDS011;63509;45.250;38.102;2022-10-16T08:03:41;7.15;;;2.53;;
74945;SDS011;63509;45.250;38.102;2022-10-16T08:06:08;11.13;;;2.97;;
74945;SDS011;63509;45.250;38.102;2022-10-16T08:08:35;11.80;;;2.38;;
74945;SDS011;63509;45.250;38.102;2022-10-16T08:11:01;4.15;;;2.30;;
74945;SDS011;63509;45.250;38.102;2022-10-16T08:13:29;6.07;;;2.55;;
74945;SDS011;63509;45.250;38.102;2022-10-16T08:15:56;7.22;;;2.83;;
74945;SDS011;63509;45.250;38.102;2022-10-16T08:18:22;8.52;;;3.55;;
74945;SDS011;63509;45.250;38.102;2022-10-16T08:20:54;4.40;;;2.80;;
74945;SDS011;63509;45.250;38.102;2022-10-16T08:23:26;7.60;;;2.95;;
74945;SDS011;63509;45.250;38.102;2022-10-16T08:25:55;4.35;;;2.25;;
74945;SDS011;63509;45.250;38.102;2022-10-16T08:28:27;7.20;;;2.67;;
74945;SDS011;63509;45.250;38.102;2022-10-16T08:30:52;14.55;;;5.20;;
74945;SDS011;63509;45.250;38.102;2022-10-16T08:33:19;12.32;;;4.03;;
74945;SDS011;63509;45.250;38.102;2022-10-16T08:35:52;13.32;;;4.80;;
74945;SDS011;63509;45.250;38.102;2022-10-16T08:38:19;9.38;;;4.13;;
74945;SDS011;63509;45.250;38.102;2022-10-16T08:40:45;15.48;;;4.15;;
74945;SDS011;63509;45.250;38.102;2022-10-16T08:43:25;6.53;;;2.97;;
74945;SDS011;63509;45.250;38.102;2022-10-16T08:51:03;15.40;;;6.85;;
74945;SDS011;63509;45.250;38.102;2022-10-16T08:53:36;10.25;;;5.82;;
74945;SDS011;63509;45.250;38.102;2022-10-16T08:56:24;8.00;;;4.60;;
74945;SDS011;63509;45.250;38.102;2022-10-16T08:58:51;7.72;;;4.68;;
74945;SDS011;63509;45.250;38.102;2022-10-16T09:01:19;9.52;;;5.00;;
74945;SDS011;63509;45.250;38.102;2022-10-16T09:14:32;6.65;;;3.40;;
74945;SDS011;63509;45.250;38.102;2022-10-16T09:20:30;5.22;;;3.38;;
74945;SDS011;63509;45.250;38.102;2022-10-16T09:25:29;11.32;;;6.60;;
74945;SDS011;63509;45.250;38.102;2022-10-16T09:27:57;13.23;;;6.50;;
74945;SDS011;63509;45.250;38.102;2022-10-16T09:30:22;17.42;;;7.75;;
74945;SDS011;63509;45.250;38.102;2022-10-16T09:32:53;23.40;;;10.18;;
74945;SDS011;63509;45.250;38.102;2022-10-16T09:35:21;13.68;;;7.25;;
74945;SDS011;63509;45.250;38.102;2022-10-16T09:37:53;11.43;;;3.95;;
74945;SDS011;63509;45.250;38.102;2022-10-16T09:40:24;16.50;;;7.57;;
74945;SDS011;63509;45.250;38.102;2022-10-16T09:48:51;15.02;;;6.50;;
74945;SDS011;63509;45.250;38.102;2022-10-16T09:51:34;17.60;;;7.43;;
74945;SDS011;63509;45.250;38.102;2022-10-16T09:56:37;8.93;;;4.20;;
74945;SDS011;63509;45.250;38.102;2022-10-16T10:01:50;8.02;;;5.07;;
74945;SDS011;63509;45.250;38.102;2022-10-16T10:04:22;9.43;;;4.78;;
74945;SDS011;63509;45.250;38.102;2022-10-16T10:06:52;11.13;;;3.67;;
74945;SDS011;63509;45.250;38.102;2022-10-16T10:11:55;9.35;;;3.60;;
74945;SDS011;63509;45.250;38.102;2022-10-16T10:16:49;10.00;;;5.60;;
74945;SDS011;63509;45.250;38.102;2022-10-16T10:19:18;13.98;;;7.18;;
74945;SDS011;63509;45.250;38.102;2022-10-16T10:21:51;14.45;;;6.00;;
74945;SDS011;63509;45.250;38.102;2022-10-16T10:24:18;9.65;;;4.47;;
74945;SDS011;63509;45.250;38.102;2022-10-16T10:26:57;8.65;;;3.13;;
74945;SDS011;63509;45.250;38.102;2022-10-16T10:29:47;10.00;;;5.55;;
74945;SDS011;63509;45.250;38.102;2022-10-16T10:32:39;11.27;;;4.13;;
74945;SDS011;63509;45.250;38.102;2022-10-16T10:35:32;8.30;;;4.30;;
74945;SDS011;63509;45.250;38.102;2022-10-16T10:38:11;5.22;;;3.78;;
74945;SDS011;63509;45.250;38.102;2022-10-16T10:43:27;14.18;;;8.82;;
74945;SDS011;63509;45.250;38.102;2022-10-16T10:46:05;23.25;;;11.75;;
74945;SDS011;63509;45.250;38.102;2022-10-16T10:54:23;26.20;;;12.32;;
74945;SDS011;63509;45.250;38.102;2022-10-16T10:56:58;12.75;;;5.97;;
74945;SDS011;63509;45.250;38.102;2022-10-16T11:05:40;11.68;;;5.55;;
74945;SDS011;63509;45.250;38.102;2022-10-16T11:08:23;14.05;;;5.20;;
74945;SDS011;63509;45.250;38.102;2022-10-16T11:10:58;8.63;;;5.15;;
74945;SDS011;63509;45.250;38.102;2022-10-16T11:16:16;9.25;;;4.85;;
74945;SDS011;63509;45.250;38.102;2022-10-16T11:21:54;9.63;;;4.70;;
74945;SDS011;63509;45.250;38.102;2022-10-16T11:27:12;11.20;;;6.15;;
74945;SDS011;63509;45.250;38.102;2022-10-16T11:29:53;10.93;;;5.18;;
74945;SDS011;63509;45.250;38.102;2022-10-16T11:32:32;7.55;;;4.57;;
74945;SDS011;63509;45.250;38.102;2022-10-16T11:35:11;11.73;;;5.15;;
74945;SDS011;63509;45.250;38.102;2022-10-16T11:37:44;9.73;;;4.53;;
74945;SDS011;63509;45.250;38.102;2022-10-16T11:40:19;8.52;;;5.00;;
74945;SDS011;63509;45.250;38.102;2022-10-16T11:42:54;10.82;;;5.78;;
74945;SDS011;63509;45.250;38.102;2022-10-16T11:53:31;12.57;;;5.60;;
74945;SDS011;63509;45.250;38.102;2022-10-16T11:56:20;10.77;;;5.65;;
74945;SDS011;63509;45.250;38.102;2022-10-16T11:59:01;12.48;;;5.80;;
74945;SDS011;63509;45.250;38.102;2022-10-16T12:01:40;11.85;;;5.10;;
74945;SDS011;63509;45.250;38.102;2022-10-16T12:04:25;7.65;;;4.70;;
74945;SDS011;63509;45.250;38.102;2022-10-16T12:07:36;7.82;;;4.60;;
74945;SDS011;63509;45.250;38.102;2022-10-16T12:09:47;10.70;;;4.55;;
74945;SDS011;63509;45.250;38.102;2022-10-16T12:12:27;8.40;;;4.18;;
74945;SDS011;63509;45.250;38.102;2022-10-16T12:15:25;10.73;;;4.57;;
74945;SDS011;63509;45.250;38.102;2022-10-16T12:17:51;9.35;;;4.90;;
74945;SDS011;63509;45.250;38.102;2022-10-16T12:20:22;13.40;;;4.88;;
74945;SDS011;63509;45.250;38.102;2022-10-16T12:23:06;10.23;;;6.30;;
74945;SDS011;63509;45.250;38.102;2022-10-16T12:25:43;8.63;;;4.88;;
74945;SDS011;63509;45.250;38.102;2022-10-16T12:28:27;13.85;;;6.60;;
74945;SDS011;63509;45.250;38.102;2022-10-16T12:31:02;13.30;;;5.57;;
74945;SDS011;63509;45.250;38.102;2022-10-16T12:33:31;14.80;;;5.90;;
74945;SDS011;63509;45.250;38.102;2022-10-16T12:36:00;11.32;;;6.13;;
74945;SDS011;63509;45.250;38.102;2022-10-16T12:38:31;12.32;;;5.93;;
74945;SDS011;63509;45.250;38.102;2022-10-16T12:41:02;11.98;;;5.57;;
74945;SDS011;63509;45.250;38.102;2022-10-16T12:43:41;18.38;;;8.25;;
74945;SDS011;63509;45.250;38.102;2022-10-16T12:48:37;19.35;;;8.32;;
74945;SDS011;63509;45.250;38.102;2022-10-16T12:54:13;6.53;;;4.03;;
74945;SDS011;63509;45.250;38.102;2022-10-16T12:56:49;9.35;;;4.43;;
74945;SDS011;63509;45.250;38.102;2022-10-16T13:02:45;15.25;;;6.38;;
74945;SDS011;63509;45.250;38.102;2022-10-16T13:05:38;21.83;;;8.00;;
74945;SDS011;63509;45.250;38.102;2022-10-16T13:14:09;14.75;;;4.82;;
74945;SDS011;63509;45.250;38.102;2022-10-16T13:24:51;12.00;;;6.72;;
74945;SDS011;63509;45.250;38.102;2022-10-16T13:27:25;10.13;;;4.80;;
74945;SDS011;63509;45.250;38.102;2022-10-16T13:30:01;13.35;;;5.35;;
74945;SDS011;63509;45.250;38.102;2022-10-16T13:32:48;15.23;;;8.20;;
74945;SDS011;63509;45.250;38.102;2022-10-16T13:35:25;17.42;;;8.80;;
74945;SDS011;63509;45.250;38.102;2022-10-16T13:41:03;12.63;;;7.97;;
74945;SDS011;63509;45.250;38.102;2022-10-16T13:43:50;13.52;;;4.82;;
74945;SDS011;63509;45.250;38.102;2022-10-16T13:46:22;13.80;;;6.30;;
74945;SDS011;63509;45.250;38.102;2022-10-16T13:48:59;15.57;;;5.28;;
74945;SDS011;63509;45.250;38.102;2022-10-16T13:51:27;11.40;;;4.32;;
74945;SDS011;63509;45.250;38.102;2022-10-16T13:53:54;19.40;;;4.28;;
74945;SDS011;63509;45.250;38.102;2022-10-16T13:56:22;10.10;;;3.70;;
74945;SDS011;63509;45.250;38.102;2022-10-16T13:59:00;6.72;;;3.05;;
74945;SDS011;63509;45.250;38.102;2022-10-16T14:01:29;9.35;;;3.28;;
74945;SDS011;63509;45.250;38.102;2022-10-16T14:04:21;6.38;;;2.67;;
74945;SDS011;63509;45.250;38.102;2022-10-16T14:06:49;7.88;;;3.00;;
74945;SDS011;63509;45.250;38.102;2022-10-16T14:09:24;6.75;;;3.22;;
74945;SDS011;63509;45.250;38.102;2022-10-16T14:14:34;15.07;;;3.15;;
74945;SDS011;63509;45.250;38.102;2022-10-16T14:17:28;6.53;;;2.70;;
74945;SDS011;63509;45.250;38.102;2022-10-16T14:19:54;7.53;;;2.40;;
74945;SDS011;63509;45.250;38.102;2022-10-16T14:22:33;5.63;;;2.38;;
74945;SDS011;63509;45.250;38.102;2022-10-16T14:27:45;7.53;;;2.47;;
74945;SDS011;63509;45.250;38.102;2022-10-16T14:30:33;9.55;;;4.10;;
74945;SDS011;63509;45.250;38.102;2022-10-16T14:33:02;13.50;;;5.22;;
74945;SDS011;63509;45.250;38.102;2022-10-16T14:35:32;7.07;;;3.95;;
74945;SDS011;63509;45.250;38.102;2022-10-16T14:38:00;8.65;;;3.78;;
74945;SDS011;63509;45.250;38.102;2022-10-16T14:40:29;14.43;;;3.78;;
74945;SDS011;63509;45.250;38.102;2022-10-16T14:42:56;8.10;;;3.17;;
74945;SDS011;63509;45.250;38.102;2022-10-16T14:45:24;10.82;;;3.28;;
74945;SDS011;63509;45.250;38.102;2022-10-16T14:47:54;9.55;;;3.83;;
74945;SDS011;63509;45.250;38.102;2022-10-16T14:50:23;10.93;;;3.35;;
74945;SDS011;63509;45.250;38.102;2022-10-16T14:52:49;9.63;;;4.35;;
74945;SDS011;63509;45.250;38.102;2022-10-16T14:55:15;19.58;;;5.60;;
74945;SDS011;63509;45.250;38.102;2022-10-16T14:57:42;9.55;;;4.90;;
74945;SDS011;63509;45.250;38.102;2022-10-16T15:00:13;11.70;;;5.97;;
74945;SDS011;63509;45.250;38.102;2022-10-16T15:02:48;18.02;;;7.10;;
74945;SDS011;63509;45.250;38.102;2022-10-16T15:05:17;23.88;;;11.80;;
74945;SDS011;63509;45.250;38.102;2022-10-16T15:07:54;24.45;;;12.45;;
74945;SDS011;63509;45.250;38.102;2022-10-16T15:10:20;26.80;;;14.85;;
74945;SDS011;63509;45.250;38.102;2022-10-16T15:17:50;31.90;;;15.73;;
74945;SDS011;63509;45.250;38.102;2022-10-16T15:20:22;12.43;;;5.50;;
74945;SDS011;63509;45.250;38.102;2022-10-16T15:22:49;12.55;;;5.88;;
74945;SDS011;63509;45.250;38.102;2022-10-16T15:28:07;15.55;;;7.03;;
74945;SDS011;63509;45.250;38.102;2022-10-16T15:30:34;16.35;;;6.85;;
74945;SDS011;63509;45.250;38.102;2022-10-16T15:33:02;12.15;;;5.65;;
74945;SDS011;63509;45.250;38.102;2022-10-16T15:35:29;12.10;;;6.45;;
74945;SDS011;63509;45.250;38.102;2022-10-16T15:37:56;12.40;;;7.18;;
74945;SDS011;63509;45.250;38.102;2022-10-16T15:40:22;8.00;;;3.78;;
74945;SDS011;63509;45.250;38.102;2022-10-16T15:42:49;14.02;;;3.22;;
74945;SDS011;63509;45.250;38.102;2022-10-16T15:45:15;14.15;;;4.18;;
74945;SDS011;63509;45.250;38.102;2022-10-16T15:47:42;12.48;;;4.40;;
74945;SDS011;63509;45.250;38.102;2022-10-16T15:50:12;11.70;;;4.43;;
74945;SDS011;63509;45.250;38.102;2022-10-16T15:52:40;16.73;;;8.30;;
74945;SDS011;63509;45.250;38.102;2022-10-16T15:55:09;26.83;;;9.73;;
74945;SDS011;63509;45.250;38.102;2022-10-16T15:57:37;23.55;;;10.38;;
74945;SDS011;63509;45.250;38.102;2022-10-16T16:00:06;21.67;;;10.40;;
74945;SDS011;63509;45.250;38.102;2022-10-16T16:02:37;28.95;;;9.90;;
74945;SDS011;63509;45.250;38.102;2022-10-16T16:07:36;19.85;;;9.27;;
74945;SDS011;63509;45.250;38.102;2022-10-16T16:10:04;25.10;;;10.13;;
74945;SDS011;63509;45.250;38.102;2022-10-16T16:12:32;21.75;;;9.43;;
74945;SDS011;63509;45.250;38.102;2022-10-16T16:14:59;33.28;;;12.07;;
74945;SDS011;63509;45.250;38.102;2022-10-16T16:17:25;28.90;;;10.93;;
74945;SDS011;63509;45.250;38.102;2022-10-16T16:19:51;32.30;;;12.00;;
74945;SDS011;63509;45.250;38.102;2022-10-16T16:22:17;23.60;;;10.85;;
74945;SDS011;63509;45.250;38.102;2022-10-16T16:24:43;22.90;;;9.27;;
74945;SDS011;63509;45.250;38.102;2022-10-16T16:27:10;20.77;;;8.32;;
74945;SDS011;63509;45.250;38.102;2022-10-16T16:29:39;17.20;;;7.53;;
74945;SDS011;63509;45.250;38.102;2022-10-16T16:32:05;17.77;;;7.25;;
74945;SDS011;63509;45.250;38.102;2022-10-16T16:34:31;18.05;;;6.85;;
74945;SDS011;63509;45.250;38.102;2022-10-16T16:36:57;32.97;;;8.05;;
74945;SDS011;63509;45.250;38.102;2022-10-16T16:39:24;23.40;;;8.00;;
74945;SDS011;63509;45.250;38.102;2022-10-16T16:41:50;16.23;;;7.65;;
74945;SDS011;63509;45.250;38.102;2022-10-16T16:44:16;17.35;;;7.82;;
74945;SDS011;63509;45.250;38.102;2022-10-16T16:46:45;17.27;;;7.32;;
74945;SDS011;63509;45.250;38.102;2022-10-16T16:49:11;16.33;;;6.20;;
74945;SDS011;63509;45.250;38.102;2022-10-16T16:51:40;11.65;;;5.70;;
74945;SDS011;63509;45.250;38.102;2022-10-16T16:54:11;16.63;;;6.10;;
74945;SDS011;63509;45.250;38.102;2022-10-16T16:56:38;10.90;;;5.03;;
74945;SDS011;63509;45.250;38.102;2022-10-16T16:59:04;15.18;;;5.75;;
74945;SDS011;63509;45.250;38.102;2022-10-16T17:01:32;11.77;;;5.13;;
74945;SDS011;63509;45.250;38.102;2022-10-16T17:03:58;11.10;;;4.00;;
74945;SDS011;63509;45.250;38.102;2022-10-16T17:06:27;13.30;;;4.43;;
74945;SDS011;63509;45.250;38.102;2022-10-16T17:08:55;12.48;;;4.50;;
74945;SDS011;63509;45.250;38.102;2022-10-16T17:11:22;10.38;;;3.83;;